Terminal Aerodrome Forecast
Issued by NWS Rapid City, SD

Home | Current Version | Previous Version | Graphics & Text | Print | Product List | Glossary On
Versions: 1 2 3 4 5 6 7 8 9 10 11 12 13 14 15 16 17 18 19 20 21 22 23
000
FTUS43 KUNR 151721
TAFRAP
TAF
KRAP 151721Z 1518/1618 03008KT P6SM VCSH SCT013 OVC020
      TEMPO 1519/1523 TSRA OVC013CB
     FM160000 36011KT P6SM BKN130=

USA.gov is the U.S. government's official web portal to all federal, state and local government web resources and services.